sensor_id;sensor_type;location;lat;lon;timestamp;P1;durP1;ratioP1;P2;durP2;ratioP2
17177;SDS011;8704;52.006;4.374;2022-09-28T00:01:12;5.97;;;2.40;;
17177;SDS011;8704;52.006;4.374;2022-09-28T00:03:44;5.00;;;2.53;;
17177;SDS011;8704;52.006;4.374;2022-09-28T00:06:13;7.70;;;2.53;;
17177;SDS011;8704;52.006;4.374;2022-09-28T00:08:43;9.57;;;3.10;;
17177;SDS011;8704;52.006;4.374;2022-09-28T00:11:12;5.53;;;2.58;;
17177;SDS011;8704;52.006;4.374;2022-09-28T00:13:41;4.03;;;2.60;;
17177;SDS011;8704;52.006;4.374;2022-09-28T00:16:11;10.55;;;2.95;;
17177;SDS011;8704;52.006;4.374;2022-09-28T00:18:42;5.60;;;2.70;;
17177;SDS011;8704;52.006;4.374;2022-09-28T00:21:12;6.70;;;2.25;;
17177;SDS011;8704;52.006;4.374;2022-09-28T00:23:42;7.95;;;2.90;;
17177;SDS011;8704;52.006;4.374;2022-09-28T00:26:25;6.95;;;4.10;;
17177;SDS011;8704;52.006;4.374;2022-09-28T00:28:54;9.65;;;4.90;;
17177;SDS011;8704;52.006;4.374;2022-09-28T00:31:23;8.93;;;5.35;;
17177;SDS011;8704;52.006;4.374;2022-09-28T00:33:55;7.38;;;5.10;;
17177;SDS011;8704;52.006;4.374;2022-09-28T00:36:23;5.45;;;4.82;;
17177;SDS011;8704;52.006;4.374;2022-09-28T00:38:53;7.47;;;6.30;;
17177;SDS011;8704;52.006;4.374;2022-09-28T00:41:21;6.43;;;5.82;;
17177;SDS011;8704;52.006;4.374;2022-09-28T00:43:50;9.55;;;5.20;;
17177;SDS011;8704;52.006;4.374;2022-09-28T00:46:18;5.88;;;5.30;;
17177;SDS011;8704;52.006;4.374;2022-09-28T00:48:55;9.73;;;5.60;;
17177;SDS011;8704;52.006;4.374;2022-09-28T00:51:28;7.65;;;5.22;;
17177;SDS011;8704;52.006;4.374;2022-09-28T00:53:57;5.45;;;4.53;;
17177;SDS011;8704;52.006;4.374;2022-09-28T00:56:28;11.20;;;4.10;;
17177;SDS011;8704;52.006;4.374;2022-09-28T00:58:59;13.80;;;4.70;;
17177;SDS011;8704;52.006;4.374;2022-09-28T01:01:29;12.65;;;5.43;;
17177;SDS011;8704;52.006;4.374;2022-09-28T01:03:59;6.05;;;4.22;;
17177;SDS011;8704;52.006;4.374;2022-09-28T01:06:30;10.85;;;4.60;;
17177;SDS011;8704;52.006;4.374;2022-09-28T01:09:02;9.20;;;4.93;;
17177;SDS011;8704;52.006;4.374;2022-09-28T01:11:34;7.68;;;4.85;;
17177;SDS011;8704;52.006;4.374;2022-09-28T01:14:04;4.78;;;4.20;;
17177;SDS011;8704;52.006;4.374;2022-09-28T01:16:37;7.00;;;4.45;;
17177;SDS011;8704;52.006;4.374;2022-09-28T01:19:16;6.70;;;4.38;;
17177;SDS011;8704;52.006;4.374;2022-09-28T01:21:58;6.78;;;4.63;;
17177;SDS011;8704;52.006;4.374;2022-09-28T01:24:40;5.03;;;4.53;;
17177;SDS011;8704;52.006;4.374;2022-09-28T01:27:13;5.15;;;4.43;;
17177;SDS011;8704;52.006;4.374;2022-09-28T01:29:47;5.18;;;4.28;;
17177;SDS011;8704;52.006;4.374;2022-09-28T01:32:24;5.47;;;3.90;;
17177;SDS011;8704;52.006;4.374;2022-09-28T01:34:59;4.22;;;3.50;;
17177;SDS011;8704;52.006;4.374;2022-09-28T01:37:34;4.93;;;4.05;;
17177;SDS011;8704;52.006;4.374;2022-09-28T01:40:07;5.55;;;3.92;;
17177;SDS011;8704;52.006;4.374;2022-09-28T01:42:37;5.35;;;4.20;;
17177;SDS011;8704;52.006;4.374;2022-09-28T01:45:09;6.93;;;4.00;;
17177;SDS011;8704;52.006;4.374;2022-09-28T01:47:42;4.68;;;4.18;;
17177;SDS011;8704;52.006;4.374;2022-09-28T01:50:13;6.75;;;4.07;;
17177;SDS011;8704;52.006;4.374;2022-09-28T01:52:44;6.85;;;3.80;;
17177;SDS011;8704;52.006;4.374;2022-09-28T01:55:18;7.63;;;3.60;;
17177;SDS011;8704;52.006;4.374;2022-09-28T01:57:54;4.88;;;4.35;;
17177;SDS011;8704;52.006;4.374;2022-09-28T02:00:26;7.03;;;3.92;;
17177;SDS011;8704;52.006;4.374;2022-09-28T02:02:56;6.10;;;3.90;;
17177;SDS011;8704;52.006;4.374;2022-09-28T02:05:32;6.32;;;3.33;;
17177;SDS011;8704;52.006;4.374;2022-09-28T02:08:05;6.18;;;3.92;;
17177;SDS011;8704;52.006;4.374;2022-09-28T02:10:37;8.88;;;3.92;;
17177;SDS011;8704;52.006;4.374;2022-09-28T02:13:10;4.45;;;3.60;;
17177;SDS011;8704;52.006;4.374;2022-09-28T02:15:43;3.92;;;3.60;;
17177;SDS011;8704;52.006;4.374;2022-09-28T02:18:15;5.50;;;3.53;;
17177;SDS011;8704;52.006;4.374;2022-09-28T02:20:55;7.38;;;3.67;;
17177;SDS011;8704;52.006;4.374;2022-09-28T02:23:27;6.60;;;3.70;;
17177;SDS011;8704;52.006;4.374;2022-09-28T02:25:59;6.63;;;3.80;;
17177;SDS011;8704;52.006;4.374;2022-09-28T02:28:30;6.78;;;3.60;;
17177;SDS011;8704;52.006;4.374;2022-09-28T02:30:59;4.88;;;3.35;;
17177;SDS011;8704;52.006;4.374;2022-09-28T02:33:28;5.03;;;3.30;;
17177;SDS011;8704;52.006;4.374;2022-09-28T02:36:00;4.47;;;3.53;;
17177;SDS011;8704;52.006;4.374;2022-09-28T02:38:29;4.70;;;3.25;;
17177;SDS011;8704;52.006;4.374;2022-09-28T02:41:01;6.22;;;3.58;;
17177;SDS011;8704;52.006;4.374;2022-09-28T02:43:35;4.57;;;3.05;;
17177;SDS011;8704;52.006;4.374;2022-09-28T02:46:16;6.53;;;3.17;;
17177;SDS011;8704;52.006;4.374;2022-09-28T02:48:58;4.85;;;3.72;;
17177;SDS011;8704;52.006;4.374;2022-09-28T02:51:52;6.93;;;4.07;;
17177;SDS011;8704;52.006;4.374;2022-09-28T02:54:38;4.90;;;4.10;;
17177;SDS011;8704;52.006;4.374;2022-09-28T02:57:28;6.63;;;3.70;;
17177;SDS011;8704;52.006;4.374;2022-09-28T03:00:06;4.18;;;3.65;;
17177;SDS011;8704;52.006;4.374;2022-09-28T03:02:39;4.32;;;3.97;;
17177;SDS011;8704;52.006;4.374;2022-09-28T03:05:16;4.13;;;3.10;;
17177;SDS011;8704;52.006;4.374;2022-09-28T03:07:49;4.82;;;3.63;;
17177;SDS011;8704;52.006;4.374;2022-09-28T03:10:24;5.07;;;3.47;;
17177;SDS011;8704;52.006;4.374;2022-09-28T03:13:00;4.47;;;3.42;;
17177;SDS011;8704;52.006;4.374;2022-09-28T03:15:33;3.35;;;3.03;;
17177;SDS011;8704;52.006;4.374;2022-09-28T03:18:02;4.65;;;2.95;;
17177;SDS011;8704;52.006;4.374;2022-09-28T03:20:30;4.53;;;3.00;;
17177;SDS011;8704;52.006;4.374;2022-09-28T03:22:59;3.67;;;2.53;;
17177;SDS011;8704;52.006;4.374;2022-09-28T03:25:47;5.40;;;2.78;;
17177;SDS011;8704;52.006;4.374;2022-09-28T03:28:15;4.20;;;2.45;;
17177;SDS011;8704;52.006;4.374;2022-09-28T03:30:44;2.50;;;2.30;;
17177;SDS011;8704;52.006;4.374;2022-09-28T03:33:12;3.55;;;2.50;;
17177;SDS011;8704;52.006;4.374;2022-09-28T03:35:40;3.25;;;2.38;;
17177;SDS011;8704;52.006;4.374;2022-09-28T03:38:08;5.35;;;2.72;;
17177;SDS011;8704;52.006;4.374;2022-09-28T03:40:36;5.07;;;2.92;;
17177;SDS011;8704;52.006;4.374;2022-09-28T03:43:04;3.15;;;2.38;;
17177;SDS011;8704;52.006;4.374;2022-09-28T03:45:31;3.67;;;2.55;;
17177;SDS011;8704;52.006;4.374;2022-09-28T03:48:01;3.92;;;2.97;;
17177;SDS011;8704;52.006;4.374;2022-09-28T03:50:29;3.28;;;2.95;;
17177;SDS011;8704;52.006;4.374;2022-09-28T03:53:00;4.25;;;3.15;;
17177;SDS011;8704;52.006;4.374;2022-09-28T03:55:29;5.72;;;3.65;;
17177;SDS011;8704;52.006;4.374;2022-09-28T03:57:57;6.15;;;4.03;;
17177;SDS011;8704;52.006;4.374;2022-09-28T04:00:25;5.60;;;4.65;;
17177;SDS011;8704;52.006;4.374;2022-09-28T04:02:53;5.65;;;4.55;;
17177;SDS011;8704;52.006;4.374;2022-09-28T04:05:22;7.45;;;4.45;;
17177;SDS011;8704;52.006;4.374;2022-09-28T04:07:50;5.13;;;4.38;;
17177;SDS011;8704;52.006;4.374;2022-09-28T04:12:52;5.28;;;3.88;;
17177;SDS011;8704;52.006;4.374;2022-09-28T04:15:21;4.53;;;4.13;;
17177;SDS011;8704;52.006;4.374;2022-09-28T04:17:49;6.05;;;4.07;;
17177;SDS011;8704;52.006;4.374;2022-09-28T04:20:17;5.22;;;4.72;;
17177;SDS011;8704;52.006;4.374;2022-09-28T04:22:47;5.57;;;3.58;;
17177;SDS011;8704;52.006;4.374;2022-09-28T04:25:15;5.22;;;4.25;;
17177;SDS011;8704;52.006;4.374;2022-09-28T04:27:43;5.78;;;3.67;;
17177;SDS011;8704;52.006;4.374;2022-09-28T04:30:29;4.57;;;3.42;;
17177;SDS011;8704;52.006;4.374;2022-09-28T04:32:57;7.10;;;4.00;;
17177;SDS011;8704;52.006;4.374;2022-09-28T04:35:24;5.93;;;4.45;;
17177;SDS011;8704;52.006;4.374;2022-09-28T04:37:54;4.57;;;4.05;;
17177;SDS011;8704;52.006;4.374;2022-09-28T04:40:22;6.95;;;3.83;;
17177;SDS011;8704;52.006;4.374;2022-09-28T04:42:53;3.80;;;3.50;;
17177;SDS011;8704;52.006;4.374;2022-09-28T04:45:21;3.73;;;2.90;;
17177;SDS011;8704;52.006;4.374;2022-09-28T04:47:51;7.10;;;3.22;;
17177;SDS011;8704;52.006;4.374;2022-09-28T04:50:19;2.90;;;2.55;;
17177;SDS011;8704;52.006;4.374;2022-09-28T04:52:47;3.03;;;2.20;;
17177;SDS011;8704;52.006;4.374;2022-09-28T04:55:16;5.30;;;2.60;;
17177;SDS011;8704;52.006;4.374;2022-09-28T04:57:45;6.57;;;3.53;;
17177;SDS011;8704;52.006;4.374;2022-09-28T05:00:13;5.32;;;3.15;;
17177;SDS011;8704;52.006;4.374;2022-09-28T05:02:42;3.15;;;2.70;;
17177;SDS011;8704;52.006;4.374;2022-09-28T05:05:10;4.10;;;2.70;;
17177;SDS011;8704;52.006;4.374;2022-09-28T05:07:38;5.80;;;3.90;;
17177;SDS011;8704;52.006;4.374;2022-09-28T05:10:07;4.30;;;3.90;;
17177;SDS011;8704;52.006;4.374;2022-09-28T05:12:36;4.10;;;3.20;;
17177;SDS011;8704;52.006;4.374;2022-09-28T05:15:04;3.65;;;2.90;;
17177;SDS011;8704;52.006;4.374;2022-09-28T05:17:33;5.00;;;2.85;;
17177;SDS011;8704;52.006;4.374;2022-09-28T05:20:00;3.13;;;2.83;;
17177;SDS011;8704;52.006;4.374;2022-09-28T05:22:29;4.40;;;4.00;;
17177;SDS011;8704;52.006;4.374;2022-09-28T05:24:57;5.85;;;4.80;;
17177;SDS011;8704;52.006;4.374;2022-09-28T05:27:25;4.47;;;4.07;;
17177;SDS011;8704;52.006;4.374;2022-09-28T05:29:54;7.05;;;5.20;;
17177;SDS011;8704;52.006;4.374;2022-09-28T05:32:22;7.22;;;4.90;;
17177;SDS011;8704;52.006;4.374;2022-09-28T05:34:50;6.53;;;5.95;;
17177;SDS011;8704;52.006;4.374;2022-09-28T05:37:18;7.55;;;6.93;;
17177;SDS011;8704;52.006;4.374;2022-09-28T05:39:46;8.88;;;7.60;;
17177;SDS011;8704;52.006;4.374;2022-09-28T05:42:14;9.85;;;7.40;;
17177;SDS011;8704;52.006;4.374;2022-09-28T05:44:42;8.15;;;6.88;;
17177;SDS011;8704;52.006;4.374;2022-09-28T05:47:11;7.95;;;7.15;;
17177;SDS011;8704;52.006;4.374;2022-09-28T05:49:39;7.50;;;6.70;;
17177;SDS011;8704;52.006;4.374;2022-09-28T05:52:07;10.07;;;6.90;;
17177;SDS011;8704;52.006;4.374;2022-09-28T05:54:35;7.38;;;6.53;;
17177;SDS011;8704;52.006;4.374;2022-09-28T05:57:03;7.20;;;6.55;;
17177;SDS011;8704;52.006;4.374;2022-09-28T05:59:32;5.65;;;5.15;;
17177;SDS011;8704;52.006;4.374;2022-09-28T06:02:01;7.75;;;5.32;;
17177;SDS011;8704;52.006;4.374;2022-09-28T06:04:31;7.30;;;5.32;;
17177;SDS011;8704;52.006;4.374;2022-09-28T06:06:59;6.80;;;5.78;;
17177;SDS011;8704;52.006;4.374;2022-09-28T06:09:27;5.72;;;5.22;;
17177;SDS011;8704;52.006;4.374;2022-09-28T06:11:56;5.55;;;5.03;;
17177;SDS011;8704;52.006;4.374;2022-09-28T06:14:24;4.93;;;4.43;;
17177;SDS011;8704;52.006;4.374;2022-09-28T06:16:52;5.30;;;4.10;;
17177;SDS011;8704;52.006;4.374;2022-09-28T06:19:20;3.95;;;3.65;;
17177;SDS011;8704;52.006;4.374;2022-09-28T06:21:50;5.10;;;3.85;;
17177;SDS011;8704;52.006;4.374;2022-09-28T06:24:17;5.85;;;4.07;;
17177;SDS011;8704;52.006;4.374;2022-09-28T06:26:45;3.78;;;3.38;;
17177;SDS011;8704;52.006;4.374;2022-09-28T06:29:13;4.07;;;3.10;;
17177;SDS011;8704;52.006;4.374;2022-09-28T06:31:45;6.40;;;3.60;;
17177;SDS011;8704;52.006;4.374;2022-09-28T06:34:13;4.05;;;3.65;;
17177;SDS011;8704;52.006;4.374;2022-09-28T06:36:41;3.72;;;3.30;;
17177;SDS011;8704;52.006;4.374;2022-09-28T06:39:10;6.57;;;3.85;;
17177;SDS011;8704;52.006;4.374;2022-09-28T06:41:38;6.72;;;3.95;;
17177;SDS011;8704;52.006;4.374;2022-09-28T06:44:06;5.38;;;4.20;;
17177;SDS011;8704;52.006;4.374;2022-09-28T06:46:34;6.72;;;4.60;;
17177;SDS011;8704;52.006;4.374;2022-09-28T06:49:03;6.43;;;4.90;;
17177;SDS011;8704;52.006;4.374;2022-09-28T06:51:34;6.93;;;5.53;;
17177;SDS011;8704;52.006;4.374;2022-09-28T06:54:02;13.77;;;6.35;;
17177;SDS011;8704;52.006;4.374;2022-09-28T06:56:32;8.15;;;5.72;;
17177;SDS011;8704;52.006;4.374;2022-09-28T06:59:00;8.07;;;6.15;;
17177;SDS011;8704;52.006;4.374;2022-09-28T07:01:28;8.43;;;5.22;;
17177;SDS011;8704;52.006;4.374;2022-09-28T07:03:56;5.85;;;5.20;;
17177;SDS011;8704;52.006;4.374;2022-09-28T07:06:24;6.13;;;5.20;;
17177;SDS011;8704;52.006;4.374;2022-09-28T07:08:52;8.07;;;5.65;;
17177;SDS011;8704;52.006;4.374;2022-09-28T07:11:39;6.07;;;4.88;;
17177;SDS011;8704;52.006;4.374;2022-09-28T07:14:07;8.88;;;5.78;;
17177;SDS011;8704;52.006;4.374;2022-09-28T07:16:41;6.88;;;4.55;;
17177;SDS011;8704;52.006;4.374;2022-09-28T07:19:28;5.38;;;4.40;;
17177;SDS011;8704;52.006;4.374;2022-09-28T07:21:56;6.68;;;5.18;;
17177;SDS011;8704;52.006;4.374;2022-09-28T07:24:30;7.07;;;5.30;;
17177;SDS011;8704;52.006;4.374;2022-09-28T07:26:59;6.60;;;5.60;;
17177;SDS011;8704;52.006;4.374;2022-09-28T07:29:30;10.23;;;5.78;;
17177;SDS011;8704;52.006;4.374;2022-09-28T07:31:58;7.55;;;5.72;;
17177;SDS011;8704;52.006;4.374;2022-09-28T07:34:26;7.28;;;6.30;;
17177;SDS011;8704;52.006;4.374;2022-09-28T07:36:53;7.32;;;5.50;;
17177;SDS011;8704;52.006;4.374;2022-09-28T07:39:23;8.07;;;5.70;;
17177;SDS011;8704;52.006;4.374;2022-09-28T07:41:51;8.57;;;5.60;;
17177;SDS011;8704;52.006;4.374;2022-09-28T07:44:23;8.10;;;5.63;;
17177;SDS011;8704;52.006;4.374;2022-09-28T07:46:51;6.38;;;4.82;;
17177;SDS011;8704;52.006;4.374;2022-09-28T07:49:19;8.75;;;4.97;;
17177;SDS011;8704;52.006;4.374;2022-09-28T07:51:48;6.35;;;5.50;;
17177;SDS011;8704;52.006;4.374;2022-09-28T07:54:16;5.60;;;4.88;;
17177;SDS011;8704;52.006;4.374;2022-09-28T07:56:44;7.72;;;5.30;;
17177;SDS011;8704;52.006;4.374;2022-09-28T07:59:12;8.27;;;5.80;;
17177;SDS011;8704;52.006;4.374;2022-09-28T08:01:44;7.22;;;5.50;;
17177;SDS011;8704;52.006;4.374;2022-09-28T08:04:14;6.05;;;5.07;;
17177;SDS011;8704;52.006;4.374;2022-09-28T08:06:42;6.60;;;4.18;;
17177;SDS011;8704;52.006;4.374;2022-09-28T08:09:10;5.72;;;3.28;;
17177;SDS011;8704;52.006;4.374;2022-09-28T08:11:38;5.18;;;3.28;;
17177;SDS011;8704;52.006;4.374;2022-09-28T08:14:06;4.82;;;2.83;;
17177;SDS011;8704;52.006;4.374;2022-09-28T08:16:36;5.07;;;2.55;;
17177;SDS011;8704;52.006;4.374;2022-09-28T08:19:05;3.30;;;2.70;;
17177;SDS011;8704;52.006;4.374;2022-09-28T08:21:33;4.18;;;2.20;;
17177;SDS011;8704;52.006;4.374;2022-09-28T08:24:12;5.55;;;2.17;;
17177;SDS011;8704;52.006;4.374;2022-09-28T08:26:42;3.75;;;2.10;;
17177;SDS011;8704;52.006;4.374;2022-09-28T08:29:10;3.28;;;1.73;;
17177;SDS011;8704;52.006;4.374;2022-09-28T08:31:38;2.45;;;1.80;;
17177;SDS011;8704;52.006;4.374;2022-09-28T08:34:07;3.25;;;1.77;;
17177;SDS011;8704;52.006;4.374;2022-09-28T08:36:35;3.70;;;1.95;;
17177;SDS011;8704;52.006;4.374;2022-09-28T08:39:04;2.22;;;1.73;;
17177;SDS011;8704;52.006;4.374;2022-09-28T08:41:34;4.57;;;1.98;;
17177;SDS011;8704;52.006;4.374;2022-09-28T08:44:13;2.63;;;1.80;;
17177;SDS011;8704;52.006;4.374;2022-09-28T08:46:49;3.85;;;1.60;;
17177;SDS011;8704;52.006;4.374;2022-09-28T08:49:23;2.88;;;1.70;;
17177;SDS011;8704;52.006;4.374;2022-09-28T08:51:56;3.83;;;1.73;;
17177;SDS011;8704;52.006;4.374;2022-09-28T08:54:29;6.60;;;1.50;;
17177;SDS011;8704;52.006;4.374;2022-09-28T08:57:04;4.60;;;1.70;;
17177;SDS011;8704;52.006;4.374;2022-09-28T08:59:41;3.20;;;1.42;;
17177;SDS011;8704;52.006;4.374;2022-09-28T09:02:14;2.65;;;1.50;;
17177;SDS011;8704;52.006;4.374;2022-09-28T09:07:27;4.75;;;1.17;;
17177;SDS011;8704;52.006;4.374;2022-09-28T09:10:16;3.45;;;1.20;;
17177;SDS011;8704;52.006;4.374;2022-09-28T09:13:14;4.53;;;1.20;;
17177;SDS011;8704;52.006;4.374;2022-09-28T09:15:59;5.63;;;1.42;;
17177;SDS011;8704;52.006;4.374;2022-09-28T09:18:35;3.13;;;1.30;;
17177;SDS011;8704;52.006;4.374;2022-09-28T09:21:12;2.78;;;1.10;;
17177;SDS011;8704;52.006;4.374;2022-09-28T09:23:45;3.28;;;0.80;;
17177;SDS011;8704;52.006;4.374;2022-09-28T09:26:21;2.80;;;0.70;;
17177;SDS011;8704;52.006;4.374;2022-09-28T09:29:03;2.40;;;1.05;;
17177;SDS011;8704;52.006;4.374;2022-09-28T09:31:49;3.75;;;1.30;;
17177;SDS011;8704;52.006;4.374;2022-09-28T09:34:32;4.60;;;1.30;;
17177;SDS011;8704;52.006;4.374;2022-09-28T09:37:17;5.22;;;0.90;;
17177;SDS011;8704;52.006;4.374;2022-09-28T09:39:59;3.90;;;1.10;;
17177;SDS011;8704;52.006;4.374;2022-09-28T09:42:40;2.60;;;1.25;;
17177;SDS011;8704;52.006;4.374;2022-09-28T09:45:21;3.92;;;1.35;;
17177;SDS011;8704;52.006;4.374;2022-09-28T09:47:58;4.20;;;1.50;;
17177;SDS011;8704;52.006;4.374;2022-09-28T09:50:29;2.90;;;1.30;;
17177;SDS011;8704;52.006;4.374;2022-09-28T09:53:03;1.15;;;0.60;;
17177;SDS011;8704;52.006;4.374;2022-09-28T09:55:37;2.35;;;0.93;;
17177;SDS011;8704;52.006;4.374;2022-09-28T09:58:09;5.07;;;1.10;;
17177;SDS011;8704;52.006;4.374;2022-09-28T10:03:14;3.03;;;1.15;;
17177;SDS011;8704;52.006;4.374;2022-09-28T10:05:49;2.92;;;1.20;;
17177;SDS011;8704;52.006;4.374;2022-09-28T10:08:22;4.32;;;1.10;;
17177;SDS011;8704;52.006;4.374;2022-09-28T10:10:54;2.70;;;1.00;;
17177;SDS011;8704;52.006;4.374;2022-09-28T10:13:32;2.40;;;0.70;;
17177;SDS011;8704;52.006;4.374;2022-09-28T10:16:01;2.13;;;0.65;;
17177;SDS011;8704;52.006;4.374;2022-09-28T10:18:29;5.72;;;0.85;;
17177;SDS011;8704;52.006;4.374;2022-09-28T10:20:56;1.40;;;0.60;;
17177;SDS011;8704;52.006;4.374;2022-09-28T10:23:27;2.60;;;0.80;;
17177;SDS011;8704;52.006;4.374;2022-09-28T10:26:01;2.88;;;0.93;;
17177;SDS011;8704;52.006;4.374;2022-09-28T10:28:32;3.47;;;0.90;;
17177;SDS011;8704;52.006;4.374;2022-09-28T10:34:03;1.90;;;0.70;;
17177;SDS011;8704;52.006;4.374;2022-09-28T10:36:32;2.33;;;0.77;;
17177;SDS011;8704;52.006;4.374;2022-09-28T10:39:19;3.50;;;0.90;;
17177;SDS011;8704;52.006;4.374;2022-09-28T10:41:56;2.28;;;0.90;;
17177;SDS011;8704;52.006;4.374;2022-09-28T10:46:58;2.97;;;1.00;;
17177;SDS011;8704;52.006;4.374;2022-09-28T10:49:28;2.00;;;0.77;;
17177;SDS011;8704;52.006;4.374;2022-09-28T10:55:23;2.00;;;1.00;;
17177;SDS011;8704;52.006;4.374;2022-09-28T10:57:53;2.88;;;0.85;;
17177;SDS011;8704;52.006;4.374;2022-09-28T11:00:31;3.40;;;0.90;;
17177;SDS011;8704;52.006;4.374;2022-09-28T11:03:01;3.95;;;0.90;;
17177;SDS011;8704;52.006;4.374;2022-09-28T11:05:29;4.18;;;0.82;;
17177;SDS011;8704;52.006;4.374;2022-09-28T11:08:05;4.07;;;0.80;;
17177;SDS011;8704;52.006;4.374;2022-09-28T11:10:35;3.42;;;0.80;;
17177;SDS011;8704;52.006;4.374;2022-09-28T11:13:03;1.95;;;1.00;;
17177;SDS011;8704;52.006;4.374;2022-09-28T11:18:17;3.50;;;0.70;;
17177;SDS011;8704;52.006;4.374;2022-09-28T11:20:50;2.67;;;0.70;;
17177;SDS011;8704;52.006;4.374;2022-09-28T11:23:27;1.33;;;0.40;;
17177;SDS011;8704;52.006;4.374;2022-09-28T11:25:59;2.15;;;0.50;;
17177;SDS011;8704;52.006;4.374;2022-09-28T11:28:31;2.97;;;0.40;;
17177;SDS011;8704;52.006;4.374;2022-09-28T11:31:02;1.20;;;0.50;;
17177;SDS011;8704;52.006;4.374;2022-09-28T11:33:33;1.58;;;0.52;;
17177;SDS011;8704;52.006;4.374;2022-09-28T11:36:07;1.23;;;0.43;;
17177;SDS011;8704;52.006;4.374;2022-09-28T11:38:44;1.17;;;0.30;;
17177;SDS011;8704;52.006;4.374;2022-09-28T11:41:27;1.10;;;0.40;;
17177;SDS011;8704;52.006;4.374;2022-09-28T11:44:20;2.85;;;0.63;;
17177;SDS011;8704;52.006;4.374;2022-09-28T11:47:10;2.45;;;0.60;;
17177;SDS011;8704;52.006;4.374;2022-09-28T11:50:02;1.52;;;0.55;;
17177;SDS011;8704;52.006;4.374;2022-09-28T11:52:36;3.05;;;0.75;;
17177;SDS011;8704;52.006;4.374;2022-09-28T11:55:11;2.17;;;0.73;;
17177;SDS011;8704;52.006;4.374;2022-09-28T11:57:47;1.80;;;0.50;;
17177;SDS011;8704;52.006;4.374;2022-09-28T12:00:21;1.40;;;0.40;;
17177;SDS011;8704;52.006;4.374;2022-09-28T12:02:50;1.63;;;0.50;;
17177;SDS011;8704;52.006;4.374;2022-09-28T12:05:24;2.70;;;0.40;;
17177;SDS011;8704;52.006;4.374;2022-09-28T12:07:55;2.45;;;0.65;;
17177;SDS011;8704;52.006;4.374;2022-09-28T12:10:30;3.23;;;0.70;;
17177;SDS011;8704;52.006;4.374;2022-09-28T12:13:04;2.88;;;0.77;;
17177;SDS011;8704;52.006;4.374;2022-09-28T12:15:40;4.05;;;0.70;;
17177;SDS011;8704;52.006;4.374;2022-09-28T12:18:36;3.80;;;0.70;;
17177;SDS011;8704;52.006;4.374;2022-09-28T12:21:16;2.60;;;0.70;;
17177;SDS011;8704;52.006;4.374;2022-09-28T12:23:55;2.90;;;0.60;;
17177;SDS011;8704;52.006;4.374;2022-09-28T12:26:30;4.70;;;0.93;;
17177;SDS011;8704;52.006;4.374;2022-09-28T12:29:05;4.45;;;0.85;;
17177;SDS011;8704;52.006;4.374;2022-09-28T12:31:42;2.15;;;0.68;;
17177;SDS011;8704;52.006;4.374;2022-09-28T12:34:18;0.80;;;0.50;;
17177;SDS011;8704;52.006;4.374;2022-09-28T12:36:49;2.10;;;0.50;;
17177;SDS011;8704;52.006;4.374;2022-09-28T12:39:31;2.22;;;0.65;;
17177;SDS011;8704;52.006;4.374;2022-09-28T12:42:28;2.22;;;0.50;;
17177;SDS011;8704;52.006;4.374;2022-09-28T12:48:45;2.42;;;0.55;;
17177;SDS011;8704;52.006;4.374;2022-09-28T12:51:54;1.33;;;0.70;;
17177;SDS011;8704;52.006;4.374;2022-09-28T12:54:30;3.50;;;0.80;;
17177;SDS011;8704;52.006;4.374;2022-09-28T13:00:10;3.40;;;0.93;;
17177;SDS011;8704;52.006;4.374;2022-09-28T13:02:44;5.00;;;1.15;;
17177;SDS011;8704;52.006;4.374;2022-09-28T13:08:21;1.58;;;0.75;;
17177;SDS011;8704;52.006;4.374;2022-09-28T13:11:00;3.03;;;0.80;;
17177;SDS011;8704;52.006;4.374;2022-09-28T13:13:37;0.93;;;0.50;;
17177;SDS011;8704;52.006;4.374;2022-09-28T13:16:14;5.35;;;0.93;;
17177;SDS011;8704;52.006;4.374;2022-09-28T13:18:51;2.72;;;0.85;;
17177;SDS011;8704;52.006;4.374;2022-09-28T13:21:26;4.65;;;0.90;;
17177;SDS011;8704;52.006;4.374;2022-09-28T13:24:00;3.40;;;0.95;;
17177;SDS011;8704;52.006;4.374;2022-09-28T13:26:51;3.72;;;0.90;;
17177;SDS011;8704;52.006;4.374;2022-09-28T13:29:22;2.17;;;0.90;;
17177;SDS011;8704;52.006;4.374;2022-09-28T13:31:52;5.78;;;1.38;;
17177;SDS011;8704;52.006;4.374;2022-09-28T13:34:25;2.42;;;0.90;;
17177;SDS011;8704;52.006;4.374;2022-09-28T13:37:09;3.78;;;0.90;;
17177;SDS011;8704;52.006;4.374;2022-09-28T13:39:47;3.58;;;1.00;;
17177;SDS011;8704;52.006;4.374;2022-09-28T13:42:22;2.40;;;0.93;;
17177;SDS011;8704;52.006;4.374;2022-09-28T13:45:24;3.50;;;0.90;;
17177;SDS011;8704;52.006;4.374;2022-09-28T13:48:09;3.08;;;1.00;;
17177;SDS011;8704;52.006;4.374;2022-09-28T13:53:53;1.77;;;0.70;;
17177;SDS011;8704;52.006;4.374;2022-09-28T13:56:43;2.90;;;0.80;;
17177;SDS011;8704;52.006;4.374;2022-09-28T13:59:21;4.10;;;1.00;;
17177;SDS011;8704;52.006;4.374;2022-09-28T14:01:52;2.70;;;0.70;;
17177;SDS011;8704;52.006;4.374;2022-09-28T14:04:51;4.78;;;0.65;;
17177;SDS011;8704;52.006;4.374;2022-09-28T14:07:23;4.32;;;1.00;;
17177;SDS011;8704;52.006;4.374;2022-09-28T14:12:43;2.00;;;0.80;;
17177;SDS011;8704;52.006;4.374;2022-09-28T14:18:10;2.00;;;0.80;;
17177;SDS011;8704;52.006;4.374;2022-09-28T14:20:53;4.90;;;0.90;;
17177;SDS011;8704;52.006;4.374;2022-09-28T14:23:44;4.30;;;0.88;;
17177;SDS011;8704;52.006;4.374;2022-09-28T14:26:38;4.57;;;0.80;;
17177;SDS011;8704;52.006;4.374;2022-09-28T14:29:22;3.03;;;0.55;;
17177;SDS011;8704;52.006;4.374;2022-09-28T14:31:54;2.65;;;0.77;;
17177;SDS011;8704;52.006;4.374;2022-09-28T14:34:30;2.90;;;0.70;;
17177;SDS011;8704;52.006;4.374;2022-09-28T14:37:01;2.13;;;0.70;;
17177;SDS011;8704;52.006;4.374;2022-09-28T14:39:59;3.88;;;0.65;;
17177;SDS011;8704;52.006;4.374;2022-09-28T14:45:49;2.83;;;0.70;;
17177;SDS011;8704;52.006;4.374;2022-09-28T14:48:40;2.17;;;0.60;;
17177;SDS011;8704;52.006;4.374;2022-09-28T14:54:13;1.95;;;0.57;;
17177;SDS011;8704;52.006;4.374;2022-09-28T14:56:48;1.40;;;0.68;;
17177;SDS011;8704;52.006;4.374;2022-09-28T14:59:26;2.45;;;0.70;;
17177;SDS011;8704;52.006;4.374;2022-09-28T15:02:00;2.22;;;0.80;;
17177;SDS011;8704;52.006;4.374;2022-09-28T15:04:35;4.57;;;1.08;;
17177;SDS011;8704;52.006;4.374;2022-09-28T15:07:16;2.65;;;0.82;;
17177;SDS011;8704;52.006;4.374;2022-09-28T15:09:46;1.67;;;0.60;;
17177;SDS011;8704;52.006;4.374;2022-09-28T15:12:16;2.15;;;0.82;;
17177;SDS011;8704;52.006;4.374;2022-09-28T15:14:50;2.88;;;1.00;;
17177;SDS011;8704;52.006;4.374;2022-09-28T15:17:21;2.90;;;0.98;;
17177;SDS011;8704;52.006;4.374;2022-09-28T15:22:50;2.53;;;1.10;;
17177;SDS011;8704;52.006;4.374;2022-09-28T15:25:22;2.75;;;1.00;;
17177;SDS011;8704;52.006;4.374;2022-09-28T15:27:52;1.90;;;0.90;;
17177;SDS011;8704;52.006;4.374;2022-09-28T15:30:27;2.75;;;1.15;;
17177;SDS011;8704;52.006;4.374;2022-09-28T15:32:57;5.18;;;1.10;;
17177;SDS011;8704;52.006;4.374;2022-09-28T15:35:40;2.85;;;1.00;;
17177;SDS011;8704;52.006;4.374;2022-09-28T15:38:09;3.58;;;1.40;;
17177;SDS011;8704;52.006;4.374;2022-09-28T15:40:42;2.72;;;1.30;;
17177;SDS011;8704;52.006;4.374;2022-09-28T15:43:19;2.58;;;1.40;;
17177;SDS011;8704;52.006;4.374;2022-09-28T15:45:57;5.00;;;1.30;;
17177;SDS011;8704;52.006;4.374;2022-09-28T15:48:31;2.85;;;1.10;;
17177;SDS011;8704;52.006;4.374;2022-09-28T15:51:07;4.35;;;1.10;;
17177;SDS011;8704;52.006;4.374;2022-09-28T15:53:40;4.93;;;1.70;;
17177;SDS011;8704;52.006;4.374;2022-09-28T15:56:09;4.07;;;1.30;;
17177;SDS011;8704;52.006;4.374;2022-09-28T15:58:38;2.90;;;1.33;;
17177;SDS011;8704;52.006;4.374;2022-09-28T16:01:21;3.15;;;0.98;;
17177;SDS011;8704;52.006;4.374;2022-09-28T16:07:04;2.83;;;1.20;;
17177;SDS011;8704;52.006;4.374;2022-09-28T16:09:57;6.20;;;1.55;;
17177;SDS011;8704;52.006;4.374;2022-09-28T16:12:29;2.03;;;1.10;;
17177;SDS011;8704;52.006;4.374;2022-09-28T16:15:13;3.75;;;1.40;;
17177;SDS011;8704;52.006;4.374;2022-09-28T16:17:50;4.07;;;1.50;;
17177;SDS011;8704;52.006;4.374;2022-09-28T16:20:21;3.85;;;1.30;;
17177;SDS011;8704;52.006;4.374;2022-09-28T16:22:53;7.45;;;1.48;;
17177;SDS011;8704;52.006;4.374;2022-09-28T16:25:26;3.17;;;1.20;;
17177;SDS011;8704;52.006;4.374;2022-09-28T16:27:54;5.47;;;1.48;;